createdAt,value
2022-07-29T00:01:19.583Z,94.06
2022-07-29T00:04:04.969Z,94.18
2022-07-29T00:06:49.819Z,94.20
2022-07-29T00:09:43.004Z,94.32
2022-07-29T00:12:36.759Z,94.15
2022-07-29T00:15:21.983Z,94.03
2022-07-29T00:18:07.052Z,94.21
2022-07-29T00:20:52.140Z,94.23
2022-07-29T00:23:37.216Z,94.11
2022-07-29T00:26:22.500Z,93.89
2022-07-29T00:29:33.101Z,93.94
2022-07-29T00:32:12.953Z,93.59
2022-07-29T00:35:16.185Z,93.85
2022-07-29T00:38:01.137Z,93.71
2022-07-29T00:40:47.900Z,93.36
2022-07-29T00:43:32.625Z,93.22
2022-07-29T00:46:17.690Z,92.68
2022-07-29T00:49:02.792Z,92.93
2022-07-29T00:51:49.021Z,92.39
2022-07-29T00:54:34.732Z,92.40
2022-07-29T00:57:20.476Z,92.37
2022-07-29T01:00:07.691Z,92.27
2022-07-29T01:02:53.306Z,92.48
2022-07-29T01:05:48.117Z,92.39
2022-07-29T01:08:37.125Z,92.64
2022-07-29T01:11:22.048Z,92.76
2022-07-29T01:14:07.777Z,93.00
2022-07-29T01:17:02.388Z,92.89
2022-07-29T01:20:08.764Z,93.12
2022-07-29T01:23:32.529Z,92.72
2022-07-29T01:26:23.528Z,92.72
2022-07-29T01:29:18.391Z,92.40
2022-07-29T01:32:20.286Z,92.21
2022-07-29T01:35:19.507Z,92.07
2022-07-29T01:38:16.945Z,91.80
2022-07-29T01:41:16.965Z,92.24
2022-07-29T01:44:15.971Z,92.18
2022-07-29T01:47:16.231Z,92.12
2022-07-29T01:50:06.384Z,92.13
2022-07-29T01:52:57.413Z,91.97
2022-07-29T01:55:46.377Z,92.00
2022-07-29T01:58:33.639Z,91.64
2022-07-29T02:01:20.223Z,91.75
2022-07-29T02:04:10.202Z,91.64
2022-07-29T02:07:00.978Z,91.76
2022-07-29T02:09:48.055Z,91.66
2022-07-29T02:12:34.283Z,92.23
2022-07-29T02:15:19.542Z,92.33
2022-07-29T02:18:31.204Z,92.82
2022-07-29T02:21:21.884Z,92.88
2022-07-29T02:24:11.476Z,93.04
2022-07-29T02:26:58.565Z,93.10
2022-07-29T02:29:45.955Z,92.91
2022-07-29T02:32:32.882Z,92.55
2022-07-29T02:35:18.959Z,92.24
2022-07-29T02:38:23.320Z,92.07
2022-07-29T02:41:15.814Z,92.15
2022-07-29T02:44:12.100Z,91.80
2022-07-29T02:47:10.949Z,91.16
2022-07-29T02:50:28.330Z,90.82
2022-07-29T02:53:20.536Z,90.93
2022-07-29T02:56:11.147Z,90.87
2022-07-29T02:58:57.492Z,90.65
2022-07-29T03:01:44.604Z,90.80
2022-07-29T03:04:32.666Z,91.03
2022-07-29T03:07:20.394Z,90.94
2022-07-29T03:10:13.436Z,91.17
2022-07-29T03:12:59.526Z,91.29
2022-07-29T03:15:45.796Z,91.36
2022-07-29T03:18:31.639Z,91.55
2022-07-29T03:21:16.893Z,91.32
2022-07-29T03:24:04.512Z,91.06
2022-07-29T03:26:53.354Z,91.38
2022-07-29T03:29:38.059Z,91.11
2022-07-29T03:32:25.264Z,90.93
2022-07-29T03:35:10.649Z,90.86
2022-07-29T03:37:55.345Z,90.12
2022-07-29T03:40:49.226Z,89.47
2022-07-29T03:43:38.722Z,89.29
2022-07-29T03:46:36.155Z,89.07
2022-07-29T03:49:23.561Z,88.46
2022-07-29T03:52:09.440Z,88.38
2022-07-29T03:54:54.581Z,87.96
2022-07-29T03:57:40.875Z,87.58
2022-07-29T04:00:27.359Z,87.44
2022-07-29T04:03:13.603Z,87.37
2022-07-29T04:06:07.055Z,86.59
2022-07-29T04:08:52.744Z,85.88
2022-07-29T04:12:01.820Z,85.44
2022-07-29T04:14:44.598Z,84.53
2022-07-29T04:17:29.646Z,84.06
2022-07-29T04:20:14.760Z,83.92
2022-07-29T04:22:59.870Z,83.90
2022-07-29T04:25:44.641Z,83.90
2022-07-29T04:28:29.492Z,83.53
2022-07-29T04:31:14.660Z,82.90
2022-07-29T04:33:59.570Z,80.96
2022-07-29T04:36:44.407Z,79.95
2022-07-29T04:39:30.459Z,78.88
2022-07-29T04:42:15.434Z,77.92
2022-07-29T04:45:02.853Z,76.99
2022-07-29T04:47:51.079Z,75.46
2022-07-29T04:50:39.213Z,73.85
2022-07-29T04:53:24.651Z,74.08
2022-07-29T04:56:09.767Z,74.12
2022-07-29T04:58:54.667Z,74.04
2022-07-29T05:01:39.730Z,72.91
2022-07-29T05:04:24.678Z,73.02
2022-07-29T05:07:09.529Z,73.23
2022-07-29T05:09:57.262Z,73.50
2022-07-29T05:12:42.658Z,72.86
2022-07-29T05:15:27.677Z,72.95
2022-07-29T05:18:12.843Z,72.64
2022-07-29T05:20:57.798Z,71.01
2022-07-29T05:23:42.665Z,68.27
2022-07-29T05:26:27.953Z,65.22
2022-07-29T05:29:43.055Z,62.97
2022-07-29T05:32:17.600Z,62.36
2022-07-29T05:35:03.111Z,61.52
2022-07-29T05:37:48.059Z,61.64
2022-07-29T05:40:33.261Z,60.93
2022-07-29T05:43:18.009Z,60.14
2022-07-29T05:46:03.272Z,59.51
2022-07-29T05:48:48.693Z,58.84
2022-07-29T05:51:34.349Z,58.65
2022-07-29T05:54:19.483Z,57.74
2022-07-29T05:57:04.620Z,57.00
2022-07-29T05:59:51.173Z,56.90
2022-07-29T06:02:36.553Z,55.81
2022-07-29T06:05:22.080Z,54.61
2022-07-29T06:08:07.556Z,54.65
2022-07-29T06:10:52.482Z,53.55
2022-07-29T06:13:37.476Z,53.42
2022-07-29T06:16:29.963Z,52.63
2022-07-29T06:19:15.405Z,52.52
2022-07-29T06:22:00.425Z,51.02
2022-07-29T06:24:45.426Z,50.81
2022-07-29T06:27:30.393Z,51.01
2022-07-29T06:30:15.232Z,49.06
2022-07-29T06:33:01.753Z,48.86
2022-07-29T06:35:55.158Z,50.34
2022-07-29T06:38:42.853Z,49.41
2022-07-29T06:41:31.020Z,49.60
2022-07-29T06:44:20.555Z,49.20
2022-07-29T06:47:05.614Z,48.37
2022-07-29T06:49:50.489Z,49.24
2022-07-29T06:52:35.374Z,50.23
2022-07-29T06:55:24.715Z,51.49
2022-07-29T06:58:11.285Z,52.45
2022-07-29T07:00:58.203Z,53.41
2022-07-29T07:03:42.918Z,53.59
2022-07-29T07:06:28.138Z,55.78
2022-07-29T07:09:12.771Z,58.17
2022-07-29T07:11:57.742Z,59.52
2022-07-29T07:14:42.881Z,59.49
2022-07-29T07:17:27.898Z,61.17
2022-07-29T07:20:13.264Z,61.38
2022-07-29T07:22:58.549Z,59.89
2022-07-29T07:25:44.007Z,59.85
2022-07-29T07:28:29.814Z,60.79
2022-07-29T07:31:14.698Z,61.62
2022-07-29T07:33:59.727Z,61.27
2022-07-29T07:36:44.866Z,60.95
2022-07-29T07:39:31.719Z,61.35
2022-07-29T07:42:16.763Z,60.25
2022-07-29T07:45:13.601Z,60.14
2022-07-29T07:48:00.841Z,58.02
2022-07-29T07:50:45.962Z,56.63
2022-07-29T07:53:31.109Z,56.71
2022-07-29T07:56:17.453Z,56.57
2022-07-29T07:59:02.428Z,55.67
2022-07-29T08:01:55.028Z,55.52
2022-07-29T08:04:41.390Z,56.32
2022-07-29T08:07:26.264Z,55.73
2022-07-29T08:10:11.170Z,54.69
2022-07-29T08:12:56.100Z,55.56
2022-07-29T08:15:43.186Z,53.24
2022-07-29T08:18:30.005Z,52.66
2022-07-29T08:21:16.049Z,52.98
2022-07-29T08:24:19.675Z,52.61
2022-07-29T08:27:09.810Z,52.21
2022-07-29T08:30:01.757Z,51.60
2022-07-29T08:32:54.167Z,50.47
2022-07-29T08:35:40.610Z,49.27
2022-07-29T08:38:26.616Z,48.09
2022-07-29T08:41:11.956Z,45.46
2022-07-29T08:43:57.085Z,42.84
2022-07-29T08:46:42.996Z,40.18
2022-07-29T08:49:27.930Z,40.84
2022-07-29T08:52:13.213Z,39.87
2022-07-29T08:54:58.053Z,39.84
2022-07-29T08:57:50.943Z,38.40
2022-07-29T09:00:43.492Z,40.79
2022-07-29T09:03:36.395Z,40.18
2022-07-29T09:06:22.693Z,39.88
2022-07-29T09:09:08.342Z,42.60
2022-07-29T09:11:53.945Z,41.06
2022-07-29T09:14:39.871Z,40.84
2022-07-29T09:17:46.837Z,40.08
2022-07-29T09:20:50.860Z,39.75
2022-07-29T09:23:36.250Z,39.50
2022-07-29T09:26:29.118Z,38.98
2022-07-29T09:29:16.988Z,41.57
2022-07-29T09:32:07.396Z,41.77
2022-07-29T09:35:22.341Z,41.64
2022-07-29T09:38:14.140Z,41.04
2022-07-29T09:41:05.818Z,40.91
2022-07-29T09:43:59.481Z,40.80
2022-07-29T09:47:08.874Z,37.97
2022-07-29T09:49:59.506Z,36.82
2022-07-29T09:52:49.666Z,36.91
2022-07-29T09:55:50.512Z,35.61
2022-07-29T09:58:36.561Z,36.08
2022-07-29T10:01:29.209Z,33.51
2022-07-29T10:04:14.684Z,33.91
2022-07-29T10:07:04.663Z,31.64
2022-07-29T10:09:57.532Z,31.10
2022-07-29T10:12:50.800Z,30.97
2022-07-29T10:15:39.536Z,31.96
2022-07-29T10:18:24.364Z,33.06
2022-07-29T10:21:10.503Z,33.00
2022-07-29T10:24:01.143Z,33.10
2022-07-29T10:26:48.491Z,33.69
2022-07-29T10:29:33.508Z,35.49
2022-07-29T10:32:28.926Z,36.60
2022-07-29T10:35:39.501Z,35.07
2022-07-29T10:38:35.234Z,35.87
2022-07-29T10:42:08.183Z,37.22
2022-07-29T10:44:55.065Z,39.74
2022-07-29T10:47:39.909Z,41.73
2022-07-29T10:50:26.667Z,40.33
2022-07-29T10:53:12.218Z,40.65
2022-07-29T10:55:59.863Z,41.46
2022-07-29T10:58:49.933Z,41.50
2022-07-29T11:01:39.384Z,41.23
2022-07-29T11:04:47.069Z,42.05
2022-07-29T11:07:45.862Z,41.82
2022-07-29T11:10:31.956Z,41.38
2022-07-29T11:13:50.874Z,42.59
2022-07-29T11:17:06.064Z,39.81
2022-07-29T11:19:52.428Z,39.91
2022-07-29T11:22:37.783Z,39.58
2022-07-29T11:25:42.431Z,39.71
2022-07-29T11:28:59.401Z,38.93
2022-07-29T11:31:48.811Z,36.91
2022-07-29T11:34:34.801Z,34.10
2022-07-29T11:37:28.384Z,31.67
2022-07-29T11:40:15.981Z,28.66
2022-07-29T11:43:03.122Z,28.47
2022-07-29T11:45:52.302Z,28.35
2022-07-29T11:48:42.035Z,27.79
2022-07-29T11:51:32.703Z,29.37
2022-07-29T11:54:27.519Z,30.02
2022-07-29T11:57:13.338Z,29.73
2022-07-29T12:00:09.501Z,29.95
2022-07-29T12:02:56.426Z,29.37
2022-07-29T12:05:48.279Z,29.11
2022-07-29T12:08:42.844Z,30.44
2022-07-29T12:11:27.948Z,30.87
2022-07-29T12:14:32.867Z,33.48
2022-07-29T12:17:33.548Z,33.23
2022-07-29T12:20:30.294Z,33.35
2022-07-29T12:23:16.797Z,34.78
2022-07-29T12:26:11.068Z,35.58
2022-07-29T12:29:11.240Z,36.98
2022-07-29T12:32:00.479Z,35.96
2022-07-29T12:34:46.057Z,39.36
2022-07-29T12:37:41.306Z,39.31
2022-07-29T12:40:27.800Z,41.13
2022-07-29T12:43:18.378Z,43.38
2022-07-29T12:46:15.035Z,44.56
2022-07-29T12:49:00.259Z,45.38
2022-07-29T12:51:45.380Z,46.11
2022-07-29T12:54:30.649Z,47.29
2022-07-29T12:57:20.017Z,47.63
2022-07-29T13:00:10.967Z,48.87
2022-07-29T13:02:58.115Z,49.70
2022-07-29T13:05:49.066Z,50.47
2022-07-29T13:08:34.723Z,51.98
2022-07-29T13:11:51.424Z,52.93
2022-07-29T13:14:46.247Z,54.43
2022-07-29T13:17:40.941Z,55.99
2022-07-29T13:20:32.226Z,56.37
2022-07-29T13:23:17.149Z,57.89
2022-07-29T13:26:09.840Z,58.32
2022-07-29T13:28:55.564Z,58.80
2022-07-29T13:31:40.343Z,59.01
2022-07-29T13:34:25.226Z,59.86
2022-07-29T13:37:10.598Z,60.69
2022-07-29T13:39:56.504Z,60.96
2022-07-29T13:42:41.847Z,61.06
2022-07-29T13:45:29.153Z,61.68
2022-07-29T13:48:14.200Z,61.75
2022-07-29T13:50:59.117Z,60.42
2022-07-29T13:53:44.120Z,60.32
2022-07-29T13:56:29.182Z,60.79
2022-07-29T13:59:14.363Z,61.38
2022-07-29T14:02:00.296Z,60.42
2022-07-29T14:04:45.880Z,61.35
2022-07-29T14:07:30.820Z,61.73
2022-07-29T14:10:19.961Z,62.38
2022-07-29T14:13:05.199Z,62.52
2022-07-29T14:15:50.337Z,62.43
2022-07-29T14:18:35.662Z,63.10
2022-07-29T14:21:20.635Z,63.29
2022-07-29T14:24:17.082Z,64.46
2022-07-29T14:27:03.747Z,63.69
2022-07-29T14:29:48.556Z,63.85
2022-07-29T14:32:33.406Z,63.43
2022-07-29T14:35:18.569Z,62.73
2022-07-29T14:38:03.541Z,63.29
2022-07-29T14:40:50.897Z,63.87
2022-07-29T14:43:36.254Z,63.42
2022-07-29T14:46:21.354Z,63.75
2022-07-29T14:49:06.610Z,63.99
2022-07-29T14:51:54.432Z,64.53
2022-07-29T14:54:39.311Z,64.37
2022-07-29T14:57:24.844Z,65.53
2022-07-29T15:00:11.584Z,65.47
2022-07-29T15:03:03.766Z,65.33
2022-07-29T15:05:49.162Z,65.99
2022-07-29T15:08:34.122Z,66.34
2022-07-29T15:11:19.318Z,66.24
2022-07-29T15:14:03.863Z,66.61
2022-07-29T15:16:48.883Z,66.73
2022-07-29T15:19:33.923Z,67.44
2022-07-29T15:22:18.999Z,67.38
2022-07-29T15:25:05.101Z,67.35
2022-07-29T15:27:52.346Z,68.23
2022-07-29T15:30:41.225Z,68.48
2022-07-29T15:33:26.785Z,69.13
2022-07-29T15:36:25.408Z,69.10
2022-07-29T15:39:18.386Z,69.70
2022-07-29T15:42:03.566Z,70.25
2022-07-29T15:44:48.750Z,70.38
2022-07-29T15:47:36.020Z,70.64
2022-07-29T15:50:21.520Z,70.48
2022-07-29T15:53:06.440Z,70.47
2022-07-29T15:55:51.976Z,70.87
2022-07-29T15:58:36.752Z,70.85
2022-07-29T16:01:21.922Z,71.30
2022-07-29T16:04:06.874Z,71.14
2022-07-29T16:06:52.310Z,70.93
2022-07-29T16:09:37.547Z,70.76
2022-07-29T16:12:22.274Z,70.61
2022-07-29T16:15:10.266Z,71.28
2022-07-29T16:17:55.505Z,71.37
2022-07-29T16:20:41.415Z,71.41
2022-07-29T16:23:27.158Z,71.22
2022-07-29T16:26:12.092Z,71.53
2022-07-29T16:28:57.344Z,71.13
2022-07-29T16:31:42.047Z,71.36
2022-07-29T16:34:27.074Z,70.81
2022-07-29T16:37:12.097Z,70.47
2022-07-29T16:39:57.476Z,70.14
2022-07-29T16:42:47.180Z,69.64
2022-07-29T16:45:45.770Z,69.01
2022-07-29T16:48:31.365Z,69.03
2022-07-29T16:51:16.545Z,69.60
2022-07-29T16:54:01.476Z,69.96
2022-07-29T16:56:46.579Z,70.34
2022-07-29T16:59:31.971Z,70.98
2022-07-29T17:02:17.728Z,71.32
2022-07-29T17:05:03.058Z,71.12
2022-07-29T17:07:48.053Z,71.72
2022-07-29T17:10:32.915Z,71.89
2022-07-29T17:13:17.796Z,72.79
2022-07-29T17:16:03.159Z,73.06
2022-07-29T17:18:48.223Z,73.46
2022-07-29T17:21:33.251Z,73.80
2022-07-29T17:24:18.367Z,74.48
2022-07-29T17:27:04.049Z,74.72
2022-07-29T17:29:48.747Z,75.34
2022-07-29T17:32:37.937Z,76.48
2022-07-29T17:35:41.087Z,77.25
2022-07-29T17:38:26.048Z,77.88
2022-07-29T17:41:11.150Z,77.71
2022-07-29T17:43:56.922Z,78.16
2022-07-29T17:46:42.085Z,78.41
2022-07-29T17:49:27.612Z,79.09
2022-07-29T17:52:12.879Z,79.90
2022-07-29T17:54:57.882Z,80.14
2022-07-29T17:57:42.877Z,80.53
2022-07-29T18:00:27.741Z,80.79
2022-07-29T18:03:12.818Z,81.26
2022-07-29T18:05:58.112Z,81.58
2022-07-29T18:08:46.988Z,81.74
2022-07-29T18:11:32.169Z,82.27
2022-07-29T18:14:17.158Z,82.70
2022-07-29T18:17:02.177Z,83.09
2022-07-29T18:19:48.220Z,83.82
2022-07-29T18:22:33.938Z,84.05
2022-07-29T18:25:18.990Z,84.17
2022-07-29T18:28:04.687Z,84.60
2022-07-29T18:30:50.730Z,85.15
2022-07-29T18:33:40.119Z,85.39
2022-07-29T18:36:25.206Z,85.94
2022-07-29T18:39:10.036Z,86.27
2022-07-29T18:42:14.917Z,86.50
2022-07-29T18:44:59.450Z,86.94
2022-07-29T18:47:44.971Z,87.21
2022-07-29T18:50:32.151Z,87.67
2022-07-29T18:53:16.901Z,88.18
2022-07-29T18:56:02.863Z,88.53
2022-07-29T18:58:47.744Z,88.81
2022-07-29T19:01:32.939Z,88.98
2022-07-29T19:04:18.797Z,88.83
2022-07-29T19:07:03.820Z,88.34
2022-07-29T19:09:49.542Z,88.03
2022-07-29T19:12:34.643Z,87.65
2022-07-29T19:15:20.131Z,86.59
2022-07-29T19:18:05.347Z,86.42
2022-07-29T19:20:50.667Z,85.78
2022-07-29T19:24:05.913Z,85.33
2022-07-29T19:26:46.080Z,85.07
2022-07-29T19:29:32.130Z,84.55
2022-07-29T19:32:25.345Z,83.78
2022-07-29T19:35:30.617Z,83.58
2022-07-29T19:38:15.531Z,83.21
2022-07-29T19:41:00.484Z,82.45
2022-07-29T19:43:51.959Z,82.41
2022-07-29T19:46:38.206Z,81.80
2022-07-29T19:49:23.008Z,80.98
2022-07-29T19:52:07.770Z,80.56
2022-07-29T19:54:53.081Z,80.51
2022-07-29T19:57:40.984Z,80.16
2022-07-29T20:00:26.283Z,80.68
2022-07-29T20:03:12.267Z,80.62
2022-07-29T20:05:57.690Z,80.60
2022-07-29T20:08:42.724Z,81.19
2022-07-29T20:11:29.128Z,81.28
2022-07-29T20:14:14.361Z,81.43
2022-07-29T20:16:59.469Z,81.68
2022-07-29T20:19:49.131Z,82.09
2022-07-29T20:22:35.484Z,82.35
2022-07-29T20:25:20.839Z,82.32
2022-07-29T20:28:06.441Z,82.45
2022-07-29T20:30:51.909Z,82.56
2022-07-29T20:33:36.653Z,82.51
2022-07-29T20:36:21.565Z,82.27
2022-07-29T20:39:06.731Z,82.22
2022-07-29T20:41:51.533Z,82.11
2022-07-29T20:44:36.529Z,81.80
2022-07-29T20:47:21.884Z,81.52
2022-07-29T20:50:09.310Z,81.77
2022-07-29T20:52:54.272Z,82.19
2022-07-29T20:55:39.087Z,82.45
2022-07-29T20:58:24.111Z,82.67
2022-07-29T21:01:09.311Z,83.08
2022-07-29T21:03:54.473Z,83.16
2022-07-29T21:06:39.748Z,83.03
2022-07-29T21:09:24.554Z,83.43
2022-07-29T21:12:10.636Z,83.81
2022-07-29T21:14:56.899Z,83.87
2022-07-29T21:17:48.144Z,84.18
2022-07-29T21:20:33.020Z,84.46
2022-07-29T21:23:17.891Z,84.69
2022-07-29T21:26:03.610Z,85.21
2022-07-29T21:28:50.166Z,85.57
2022-07-29T21:31:35.703Z,85.89
2022-07-29T21:34:20.858Z,86.46
2022-07-29T21:37:05.791Z,86.81
2022-07-29T21:39:52.139Z,86.88
2022-07-29T21:42:37.472Z,87.09
2022-07-29T21:45:22.613Z,86.58
2022-07-29T21:48:08.097Z,86.74
2022-07-29T21:50:53.390Z,86.12
2022-07-29T21:53:38.389Z,85.51
2022-07-29T21:56:27.502Z,84.99
2022-07-29T21:59:12.989Z,83.95
2022-07-29T22:02:00.681Z,83.16
2022-07-29T22:04:45.434Z,82.76
2022-07-29T22:07:54.462Z,81.71
2022-07-29T22:10:35.320Z,80.97
2022-07-29T22:13:20.478Z,80.20
2022-07-29T22:16:05.873Z,79.76
2022-07-29T22:18:50.829Z,79.81
2022-07-29T22:21:35.757Z,79.86
2022-07-29T22:24:20.844Z,79.63
2022-07-29T22:27:05.603Z,79.83
2022-07-29T22:29:50.850Z,78.97
2022-07-29T22:32:35.960Z,79.05
2022-07-29T22:35:21.185Z,78.72
2022-07-29T22:38:06.096Z,78.34
2022-07-29T22:40:51.811Z,77.83
2022-07-29T22:43:38.979Z,77.77
2022-07-29T22:46:23.815Z,77.61
2022-07-29T22:49:08.935Z,77.40
2022-07-29T22:51:53.743Z,77.71
2022-07-29T22:54:39.042Z,77.39
2022-07-29T22:57:23.913Z,77.70
2022-07-29T23:00:09.574Z,77.72
2022-07-29T23:02:54.837Z,77.98
2022-07-29T23:05:39.895Z,78.45
2022-07-29T23:08:24.928Z,78.75
2022-07-29T23:11:10.209Z,79.01
2022-07-29T23:13:54.964Z,79.29
2022-07-29T23:16:39.872Z,79.76
2022-07-29T23:19:24.774Z,80.16
2022-07-29T23:22:10.287Z,80.50
2022-07-29T23:24:55.509Z,80.77
2022-07-29T23:27:40.800Z,81.01
2022-07-29T23:30:25.620Z,81.53
2022-07-29T23:33:10.410Z,81.65
2022-07-29T23:35:55.486Z,82.05
2022-07-29T23:38:40.518Z,82.50
2022-07-29T23:41:30.055Z,82.10
2022-07-29T23:44:15.127Z,82.05
2022-07-29T23:47:01.684Z,82.28
2022-07-29T23:49:49.273Z,82.07
2022-07-29T23:52:35.549Z,82.42
2022-07-29T23:55:38.293Z,82.94
2022-07-29T23:58:24.546Z,83.70
